sensor_id;sensor_type;location;lat;lon;timestamp;pressure;altitude;pressure_sealevel;temperature;humidity
54936;BME280;40838;50.676;7.838;2023-04-30T00:00:13;98848.28;;;6.30;100.00
54936;BME280;40838;50.676;7.838;2023-04-30T00:02:40;98844.09;;;6.34;100.00
54936;BME280;40838;50.676;7.838;2023-04-30T00:05:07;98844.16;;;6.22;100.00
54936;BME280;40838;50.676;7.838;2023-04-30T00:07:34;98848.69;;;6.10;100.00
54936;BME280;40838;50.676;7.838;2023-04-30T00:10:01;98842.47;;;6.05;100.00
54936;BME280;40838;50.676;7.838;2023-04-30T00:12:29;98840.31;;;6.01;100.00
54936;BME280;40838;50.676;7.838;2023-04-30T00:14:56;98836.09;;;5.89;100.00
54936;BME280;40838;50.676;7.838;2023-04-30T00:17:24;98842.88;;;5.73;100.00
54936;BME280;40838;50.676;7.838;2023-04-30T00:19:50;98842.31;;;5.59;100.00
54936;BME280;40838;50.676;7.838;2023-04-30T00:22:17;98847.16;;;5.27;100.00
54936;BME280;40838;50.676;7.838;2023-04-30T00:24:44;98839.09;;;5.10;100.00
54936;BME280;40838;50.676;7.838;2023-04-30T00:27:11;98846.22;;;5.09;100.00
54936;BME280;40838;50.676;7.838;2023-04-30T00:29:37;98842.84;;;4.90;100.00
54936;BME280;40838;50.676;7.838;2023-04-30T00:32:04;98843.06;;;4.77;100.00
54936;BME280;40838;50.676;7.838;2023-04-30T00:34:32;98846.50;;;4.66;100.00
54936;BME280;40838;50.676;7.838;2023-04-30T00:36:59;98852.19;;;4.51;100.00
54936;BME280;40838;50.676;7.838;2023-04-30T00:39:26;98849.59;;;4.33;100.00
54936;BME280;40838;50.676;7.838;2023-04-30T00:41:55;98840.88;;;4.14;100.00
54936;BME280;40838;50.676;7.838;2023-04-30T00:44:22;98849.00;;;4.31;100.00
54936;BME280;40838;50.676;7.838;2023-04-30T00:46:48;98850.44;;;4.45;100.00
54936;BME280;40838;50.676;7.838;2023-04-30T00:49:15;98849.25;;;4.41;100.00
54936;BME280;40838;50.676;7.838;2023-04-30T00:51:43;98847.44;;;4.41;100.00
54936;BME280;40838;50.676;7.838;2023-04-30T00:54:10;98848.69;;;4.39;100.00
54936;BME280;40838;50.676;7.838;2023-04-30T00:56:37;98853.28;;;4.43;100.00
54936;BME280;40838;50.676;7.838;2023-04-30T00:59:05;98859.38;;;4.26;100.00
54936;BME280;40838;50.676;7.838;2023-04-30T01:01:31;98857.53;;;4.26;100.00
54936;BME280;40838;50.676;7.838;2023-04-30T01:03:58;98860.91;;;4.15;100.00
54936;BME280;40838;50.676;7.838;2023-04-30T01:06:25;98861.19;;;3.95;100.00
54936;BME280;40838;50.676;7.838;2023-04-30T01:08:53;98863.66;;;4.08;100.00
54936;BME280;40838;50.676;7.838;2023-04-30T01:11:24;98860.88;;;4.03;100.00
54936;BME280;40838;50.676;7.838;2023-04-30T01:13:57;98865.94;;;3.86;100.00
54936;BME280;40838;50.676;7.838;2023-04-30T01:16:29;98861.38;;;3.93;100.00
54936;BME280;40838;50.676;7.838;2023-04-30T01:18:58;98863.75;;;4.02;100.00
54936;BME280;40838;50.676;7.838;2023-04-30T01:21:26;98860.34;;;3.94;100.00
54936;BME280;40838;50.676;7.838;2023-04-30T01:26:58;98868.28;;;3.76;100.00
54936;BME280;40838;50.676;7.838;2023-04-30T01:29:27;98867.47;;;3.57;100.00
54936;BME280;40838;50.676;7.838;2023-04-30T01:31:54;98864.16;;;3.62;100.00
54936;BME280;40838;50.676;7.838;2023-04-30T01:34:23;98860.13;;;3.59;100.00
54936;BME280;40838;50.676;7.838;2023-04-30T01:36:52;98862.19;;;3.57;100.00
54936;BME280;40838;50.676;7.838;2023-04-30T01:39:27;98852.88;;;3.54;100.00
54936;BME280;40838;50.676;7.838;2023-04-30T01:42:02;98857.81;;;3.51;100.00
54936;BME280;40838;50.676;7.838;2023-04-30T01:44:42;98860.03;;;3.47;100.00
54936;BME280;40838;50.676;7.838;2023-04-30T01:47:16;98851.25;;;3.35;100.00
54936;BME280;40838;50.676;7.838;2023-04-30T01:49:49;98851.25;;;3.35;100.00
54936;BME280;40838;50.676;7.838;2023-04-30T01:52:20;98848.97;;;3.39;100.00
54936;BME280;40838;50.676;7.838;2023-04-30T01:54:50;98853.94;;;3.28;100.00
54936;BME280;40838;50.676;7.838;2023-04-30T01:57:20;98865.59;;;3.14;100.00
54936;BME280;40838;50.676;7.838;2023-04-30T01:59:49;98858.56;;;3.08;100.00
54936;BME280;40838;50.676;7.838;2023-04-30T02:02:16;98858.03;;;2.99;100.00
54936;BME280;40838;50.676;7.838;2023-04-30T02:04:42;98854.38;;;3.25;100.00
54936;BME280;40838;50.676;7.838;2023-04-30T02:07:09;98860.66;;;2.99;100.00
54936;BME280;40838;50.676;7.838;2023-04-30T02:09:36;98860.06;;;2.27;100.00
54936;BME280;40838;50.676;7.838;2023-04-30T02:12:03;98857.19;;;2.74;100.00
54936;BME280;40838;50.676;7.838;2023-04-30T02:14:30;98853.09;;;2.53;100.00
54936;BME280;40838;50.676;7.838;2023-04-30T02:16:58;98859.66;;;2.69;100.00
54936;BME280;40838;50.676;7.838;2023-04-30T02:19:25;98864.59;;;2.90;100.00
54936;BME280;40838;50.676;7.838;2023-04-30T02:21:52;98870.22;;;2.94;100.00
54936;BME280;40838;50.676;7.838;2023-04-30T02:24:18;98871.44;;;2.91;100.00
54936;BME280;40838;50.676;7.838;2023-04-30T02:26:45;98865.63;;;2.57;100.00
54936;BME280;40838;50.676;7.838;2023-04-30T02:29:12;98871.56;;;2.33;100.00
54936;BME280;40838;50.676;7.838;2023-04-30T02:31:41;98873.84;;;2.16;100.00
54936;BME280;40838;50.676;7.838;2023-04-30T02:34:11;98875.47;;;2.17;100.00
54936;BME280;40838;50.676;7.838;2023-04-30T02:36:37;98877.56;;;1.95;100.00
54936;BME280;40838;50.676;7.838;2023-04-30T02:39:04;98874.09;;;2.08;100.00
54936;BME280;40838;50.676;7.838;2023-04-30T02:41:30;98874.31;;;2.06;100.00
54936;BME280;40838;50.676;7.838;2023-04-30T02:43:57;98873.47;;;2.12;100.00
54936;BME280;40838;50.676;7.838;2023-04-30T02:46:23;98874.28;;;2.13;100.00
54936;BME280;40838;50.676;7.838;2023-04-30T02:48:50;98876.97;;;2.00;100.00
54936;BME280;40838;50.676;7.838;2023-04-30T02:51:18;98878.56;;;2.07;100.00
54936;BME280;40838;50.676;7.838;2023-04-30T02:53:44;98881.84;;;1.89;100.00
54936;BME280;40838;50.676;7.838;2023-04-30T02:56:13;98877.19;;;1.91;100.00
54936;BME280;40838;50.676;7.838;2023-04-30T02:58:40;98876.56;;;1.89;100.00
54936;BME280;40838;50.676;7.838;2023-04-30T03:01:06;98882.25;;;1.86;100.00
54936;BME280;40838;50.676;7.838;2023-04-30T03:03:33;98874.38;;;1.93;100.00
54936;BME280;40838;50.676;7.838;2023-04-30T03:06:00;98871.19;;;1.71;100.00
54936;BME280;40838;50.676;7.838;2023-04-30T03:08:28;98873.63;;;1.72;100.00
54936;BME280;40838;50.676;7.838;2023-04-30T03:10:55;98878.28;;;1.64;100.00
54936;BME280;40838;50.676;7.838;2023-04-30T03:13:22;98865.06;;;1.90;100.00
54936;BME280;40838;50.676;7.838;2023-04-30T03:15:55;98876.03;;;1.67;100.00
54936;BME280;40838;50.676;7.838;2023-04-30T03:18:22;98873.59;;;1.79;100.00
54936;BME280;40838;50.676;7.838;2023-04-30T03:20:48;98877.84;;;1.73;100.00
54936;BME280;40838;50.676;7.838;2023-04-30T03:23:15;98873.19;;;1.69;100.00
54936;BME280;40838;50.676;7.838;2023-04-30T03:25:43;98873.44;;;1.61;100.00
54936;BME280;40838;50.676;7.838;2023-04-30T03:28:09;98863.91;;;1.60;100.00
54936;BME280;40838;50.676;7.838;2023-04-30T03:30:36;98875.28;;;1.40;100.00
54936;BME280;40838;50.676;7.838;2023-04-30T03:33:03;98875.69;;;1.31;100.00
54936;BME280;40838;50.676;7.838;2023-04-30T03:35:30;98878.09;;;1.19;100.00
54936;BME280;40838;50.676;7.838;2023-04-30T03:37:58;98868.81;;;1.16;100.00
54936;BME280;40838;50.676;7.838;2023-04-30T03:40:24;98874.91;;;1.17;100.00
54936;BME280;40838;50.676;7.838;2023-04-30T03:42:52;98876.09;;;1.21;100.00
54936;BME280;40838;50.676;7.838;2023-04-30T03:45:19;98865.19;;;1.24;100.00
54936;BME280;40838;50.676;7.838;2023-04-30T03:47:46;98865.81;;;1.26;100.00
54936;BME280;40838;50.676;7.838;2023-04-30T03:50:13;98868.41;;;1.06;100.00
54936;BME280;40838;50.676;7.838;2023-04-30T03:52:41;98866.00;;;0.98;100.00
54936;BME280;40838;50.676;7.838;2023-04-30T03:55:12;98868.84;;;1.23;100.00
54936;BME280;40838;50.676;7.838;2023-04-30T03:57:39;98870.22;;;1.39;100.00
54936;BME280;40838;50.676;7.838;2023-04-30T04:00:08;98871.41;;;1.43;100.00
54936;BME280;40838;50.676;7.838;2023-04-30T04:02:46;98875.69;;;1.44;100.00
54936;BME280;40838;50.676;7.838;2023-04-30T04:05:13;98872.44;;;1.55;100.00
54936;BME280;40838;50.676;7.838;2023-04-30T04:07:40;98875.28;;;1.47;100.00
54936;BME280;40838;50.676;7.838;2023-04-30T04:10:07;98874.69;;;1.32;100.00
54936;BME280;40838;50.676;7.838;2023-04-30T04:12:33;98883.75;;;1.09;100.00
54936;BME280;40838;50.676;7.838;2023-04-30T04:15:00;98881.97;;;1.23;100.00
54936;BME280;40838;50.676;7.838;2023-04-30T04:17:29;98879.72;;;1.46;100.00
54936;BME280;40838;50.676;7.838;2023-04-30T04:19:55;98873.25;;;1.42;100.00
54936;BME280;40838;50.676;7.838;2023-04-30T04:22:23;98877.50;;;1.10;100.00
54936;BME280;40838;50.676;7.838;2023-04-30T04:24:50;98876.06;;;1.08;100.00
54936;BME280;40838;50.676;7.838;2023-04-30T04:27:20;98878.09;;;1.32;100.00
54936;BME280;40838;50.676;7.838;2023-04-30T04:29:46;98885.38;;;1.10;100.00
54936;BME280;40838;50.676;7.838;2023-04-30T04:32:13;98878.50;;;1.16;100.00
54936;BME280;40838;50.676;7.838;2023-04-30T04:34:45;98887.41;;;1.21;100.00
54936;BME280;40838;50.676;7.838;2023-04-30T04:37:11;98883.13;;;1.54;100.00
54936;BME280;40838;50.676;7.838;2023-04-30T04:39:39;98882.91;;;1.62;100.00
54936;BME280;40838;50.676;7.838;2023-04-30T04:42:06;98887.13;;;1.76;100.00
54936;BME280;40838;50.676;7.838;2023-04-30T04:44:33;98886.66;;;1.92;100.00
54936;BME280;40838;50.676;7.838;2023-04-30T04:47:00;98890.56;;;1.77;100.00
54936;BME280;40838;50.676;7.838;2023-04-30T04:49:29;98883.84;;;1.94;100.00
54936;BME280;40838;50.676;7.838;2023-04-30T04:51:57;98897.34;;;2.11;100.00
54936;BME280;40838;50.676;7.838;2023-04-30T04:54:24;98889.47;;;2.11;100.00
54936;BME280;40838;50.676;7.838;2023-04-30T04:56:51;98893.25;;;2.22;100.00
54936;BME280;40838;50.676;7.838;2023-04-30T04:59:17;98888.72;;;2.42;100.00
54936;BME280;40838;50.676;7.838;2023-04-30T05:01:46;98894.78;;;2.49;100.00
54936;BME280;40838;50.676;7.838;2023-04-30T05:04:13;98894.41;;;2.46;100.00
54936;BME280;40838;50.676;7.838;2023-04-30T05:06:40;98888.72;;;2.42;100.00
54936;BME280;40838;50.676;7.838;2023-04-30T05:09:08;98896.63;;;2.49;100.00
54936;BME280;40838;50.676;7.838;2023-04-30T05:11:35;98887.91;;;2.48;100.00
54936;BME280;40838;50.676;7.838;2023-04-30T05:14:02;98890.28;;;2.56;100.00
54936;BME280;40838;50.676;7.838;2023-04-30T05:16:28;98898.97;;;2.57;100.00
54936;BME280;40838;50.676;7.838;2023-04-30T05:18:55;98894.13;;;2.60;100.00
54936;BME280;40838;50.676;7.838;2023-04-30T05:21:21;98895.94;;;2.60;100.00
54936;BME280;40838;50.676;7.838;2023-04-30T05:23:50;98894.88;;;2.68;100.00
54936;BME280;40838;50.676;7.838;2023-04-30T05:26:18;98897.38;;;2.56;100.00
54936;BME280;40838;50.676;7.838;2023-04-30T05:28:44;98900.22;;;2.54;100.00
54936;BME280;40838;50.676;7.838;2023-04-30T05:31:11;98893.09;;;2.61;100.00
54936;BME280;40838;50.676;7.838;2023-04-30T05:33:38;98902.16;;;3.04;100.00
54936;BME280;40838;50.676;7.838;2023-04-30T05:36:05;98893.91;;;3.44;100.00
54936;BME280;40838;50.676;7.838;2023-04-30T05:38:31;98891.63;;;3.29;100.00
54936;BME280;40838;50.676;7.838;2023-04-30T05:40:58;98894.44;;;3.52;100.00
54936;BME280;40838;50.676;7.838;2023-04-30T05:43:26;98897.38;;;3.19;100.00
54936;BME280;40838;50.676;7.838;2023-04-30T05:45:53;98894.69;;;3.88;100.00
54936;BME280;40838;50.676;7.838;2023-04-30T05:48:20;98899.53;;;5.30;100.00
54936;BME280;40838;50.676;7.838;2023-04-30T05:50:46;98899.81;;;4.98;100.00
54936;BME280;40838;50.676;7.838;2023-04-30T05:53:13;98907.41;;;4.64;100.00
54936;BME280;40838;50.676;7.838;2023-04-30T05:55:39;98902.84;;;4.41;100.00
54936;BME280;40838;50.676;7.838;2023-04-30T05:58:06;98907.00;;;5.68;100.00
54936;BME280;40838;50.676;7.838;2023-04-30T06:00:34;98909.66;;;5.56;100.00
54936;BME280;40838;50.676;7.838;2023-04-30T06:03:03;98908.09;;;6.19;100.00
54936;BME280;40838;50.676;7.838;2023-04-30T06:05:30;98904.03;;;6.69;100.00
54936;BME280;40838;50.676;7.838;2023-04-30T06:07:57;98909.16;;;6.59;100.00
54936;BME280;40838;50.676;7.838;2023-04-30T06:10:24;98896.13;;;8.53;100.00
54936;BME280;40838;50.676;7.838;2023-04-30T06:12:51;98899.91;;;8.57;100.00
54936;BME280;40838;50.676;7.838;2023-04-30T06:15:17;98902.59;;;8.89;100.00
54936;BME280;40838;50.676;7.838;2023-04-30T06:17:45;98906.78;;;9.87;97.45
54936;BME280;40838;50.676;7.838;2023-04-30T06:20:12;98902.09;;;10.04;98.19
54936;BME280;40838;50.676;7.838;2023-04-30T06:22:39;98912.31;;;9.75;99.42
54936;BME280;40838;50.676;7.838;2023-04-30T06:25:06;98905.56;;;10.83;91.28
54936;BME280;40838;50.676;7.838;2023-04-30T06:27:33;98907.09;;;12.56;78.66
54936;BME280;40838;50.676;7.838;2023-04-30T06:30:00;98907.47;;;14.30;64.66
54936;BME280;40838;50.676;7.838;2023-04-30T06:32:26;98895.53;;;15.49;57.93
54936;BME280;40838;50.676;7.838;2023-04-30T06:34:54;98896.47;;;15.72;58.30
54936;BME280;40838;50.676;7.838;2023-04-30T06:37:21;98894.22;;;16.21;55.13
54936;BME280;40838;50.676;7.838;2023-04-30T06:39:48;98891.09;;;15.72;56.75
54936;BME280;40838;50.676;7.838;2023-04-30T06:42:15;98895.69;;;15.86;58.08
54936;BME280;40838;50.676;7.838;2023-04-30T06:44:42;98893.78;;;13.59;66.71
54936;BME280;40838;50.676;7.838;2023-04-30T06:47:09;98894.75;;;15.49;60.85
54936;BME280;40838;50.676;7.838;2023-04-30T06:49:36;98889.03;;;15.97;58.73
54936;BME280;40838;50.676;7.838;2023-04-30T06:52:04;98888.63;;;16.68;55.85
54936;BME280;40838;50.676;7.838;2023-04-30T06:54:31;98893.47;;;15.27;62.27
54936;BME280;40838;50.676;7.838;2023-04-30T06:57:00;98899.50;;;14.25;64.70
54936;BME280;40838;50.676;7.838;2023-04-30T06:59:27;98888.56;;;15.16;64.73
54936;BME280;40838;50.676;7.838;2023-04-30T07:01:54;98889.53;;;15.85;61.31
54936;BME280;40838;50.676;7.838;2023-04-30T07:04:22;98896.50;;;14.88;66.90
54936;BME280;40838;50.676;7.838;2023-04-30T07:06:50;98886.28;;;15.23;67.88
54936;BME280;40838;50.676;7.838;2023-04-30T07:09:18;98878.69;;;17.36;58.08
54936;BME280;40838;50.676;7.838;2023-04-30T07:11:44;98881.09;;;16.56;60.97
54936;BME280;40838;50.676;7.838;2023-04-30T07:14:11;98889.72;;;16.03;63.54
54936;BME280;40838;50.676;7.838;2023-04-30T07:16:38;98881.75;;;16.11;69.32
54936;BME280;40838;50.676;7.838;2023-04-30T07:19:04;98887.19;;;15.18;74.12
54936;BME280;40838;50.676;7.838;2023-04-30T07:21:31;98883.78;;;14.80;79.80
54936;BME280;40838;50.676;7.838;2023-04-30T07:23:57;98879.28;;;15.73;73.02
54936;BME280;40838;50.676;7.838;2023-04-30T07:26:28;98879.75;;;14.96;77.52
54936;BME280;40838;50.676;7.838;2023-04-30T07:28:54;98876.22;;;15.15;77.46
54936;BME280;40838;50.676;7.838;2023-04-30T07:31:21;98872.78;;;16.02;70.39
54936;BME280;40838;50.676;7.838;2023-04-30T07:33:48;98861.75;;;15.62;73.55
54936;BME280;40838;50.676;7.838;2023-04-30T07:36:15;98871.09;;;15.79;69.58
54936;BME280;40838;50.676;7.838;2023-04-30T07:38:41;98868.81;;;16.27;65.17
54936;BME280;40838;50.676;7.838;2023-04-30T07:41:08;98871.69;;;15.48;57.23
54936;BME280;40838;50.676;7.838;2023-04-30T07:43:36;98865.50;;;14.82;73.49
54936;BME280;40838;50.676;7.838;2023-04-30T07:46:03;98869.38;;;15.41;68.36
54936;BME280;40838;50.676;7.838;2023-04-30T07:48:29;98865.16;;;15.35;63.95
54936;BME280;40838;50.676;7.838;2023-04-30T07:50:56;98863.91;;;15.46;73.86
54936;BME280;40838;50.676;7.838;2023-04-30T07:53:23;98869.31;;;16.66;59.65
54936;BME280;40838;50.676;7.838;2023-04-30T07:55:49;98864.34;;;15.35;51.06
54936;BME280;40838;50.676;7.838;2023-04-30T07:58:16;98863.78;;;15.38;48.41
54936;BME280;40838;50.676;7.838;2023-04-30T08:00:44;98864.50;;;15.43;53.65
54936;BME280;40838;50.676;7.838;2023-04-30T08:03:11;98865.13;;;15.54;46.84
54936;BME280;40838;50.676;7.838;2023-04-30T08:05:37;98866.22;;;15.81;47.03
54936;BME280;40838;50.676;7.838;2023-04-30T08:08:05;98865.50;;;17.34;41.08
54936;BME280;40838;50.676;7.838;2023-04-30T08:10:32;98873.56;;;16.16;38.15
54936;BME280;40838;50.676;7.838;2023-04-30T08:12:59;98872.06;;;15.41;37.92
54936;BME280;40838;50.676;7.838;2023-04-30T08:15:26;98874.25;;;15.39;39.20
54936;BME280;40838;50.676;7.838;2023-04-30T08:17:54;98874.25;;;15.39;39.94
54936;BME280;40838;50.676;7.838;2023-04-30T08:20:20;98876.97;;;15.34;38.91
54936;BME280;40838;50.676;7.838;2023-04-30T08:22:47;98874.53;;;16.48;41.46
54936;BME280;40838;50.676;7.838;2023-04-30T08:25:14;98872.28;;;17.00;43.96
54936;BME280;40838;50.676;7.838;2023-04-30T08:27:40;98877.06;;;16.17;38.03
54936;BME280;40838;50.676;7.838;2023-04-30T08:30:07;98872.09;;;16.38;39.78
54936;BME280;40838;50.676;7.838;2023-04-30T08:32:34;98872.44;;;16.45;42.39
54936;BME280;40838;50.676;7.838;2023-04-30T08:35:03;98882.53;;;15.84;42.38
54936;BME280;40838;50.676;7.838;2023-04-30T08:37:29;98875.19;;;15.90;39.62
54936;BME280;40838;50.676;7.838;2023-04-30T08:39:56;98872.53;;;16.54;41.28
54936;BME280;40838;50.676;7.838;2023-04-30T08:42:24;98870.19;;;16.25;38.52
54936;BME280;40838;50.676;7.838;2023-04-30T08:44:51;98874.44;;;15.43;37.23
54936;BME280;40838;50.676;7.838;2023-04-30T08:47:17;98874.03;;;16.82;35.62
54936;BME280;40838;50.676;7.838;2023-04-30T08:49:46;98864.03;;;16.24;37.40
54936;BME280;40838;50.676;7.838;2023-04-30T08:52:14;98854.16;;;17.37;34.34
54936;BME280;40838;50.676;7.838;2023-04-30T08:54:40;98865.97;;;17.27;34.86
54936;BME280;40838;50.676;7.838;2023-04-30T08:57:07;98867.84;;;16.23;33.47
54936;BME280;40838;50.676;7.838;2023-04-30T08:59:34;98867.56;;;16.47;33.94
54936;BME280;40838;50.676;7.838;2023-04-30T09:02:01;98872.09;;;15.22;34.17
54936;BME280;40838;50.676;7.838;2023-04-30T09:04:27;98868.19;;;17.03;34.47
54936;BME280;40838;50.676;7.838;2023-04-30T09:06:54;98871.41;;;16.32;34.79
54936;BME280;40838;50.676;7.838;2023-04-30T09:09:28;98865.81;;;16.15;36.88
54936;BME280;40838;50.676;7.838;2023-04-30T09:12:09;98853.06;;;16.71;34.38
54936;BME280;40838;50.676;7.838;2023-04-30T09:14:36;98850.97;;;17.75;34.88
54936;BME280;40838;50.676;7.838;2023-04-30T09:17:04;98862.53;;;15.90;36.79
54936;BME280;40838;50.676;7.838;2023-04-30T09:19:34;98858.97;;;16.81;38.77
54936;BME280;40838;50.676;7.838;2023-04-30T09:24:45;98859.06;;;15.90;34.39
54936;BME280;40838;50.676;7.838;2023-04-30T09:27:16;98868.56;;;16.37;34.38
54936;BME280;40838;50.676;7.838;2023-04-30T09:29:43;98860.03;;;13.63;40.43
54936;BME280;40838;50.676;7.838;2023-04-30T09:32:10;98840.78;;;14.85;36.57
54936;BME280;40838;50.676;7.838;2023-04-30T09:34:37;98860.44;;;14.80;37.12
54936;BME280;40838;50.676;7.838;2023-04-30T09:37:03;98855.78;;;14.67;36.91
54936;BME280;40838;50.676;7.838;2023-04-30T09:39:30;98839.66;;;14.53;37.87
54936;BME280;40838;50.676;7.838;2023-04-30T09:42:07;98850.44;;;13.86;41.03
54936;BME280;40838;50.676;7.838;2023-04-30T09:44:35;98843.13;;;15.05;37.62
54936;BME280;40838;50.676;7.838;2023-04-30T09:47:02;98841.34;;;17.12;37.39
54936;BME280;40838;50.676;7.838;2023-04-30T09:49:29;98823.84;;;16.55;35.91
54936;BME280;40838;50.676;7.838;2023-04-30T09:51:56;98846.03;;;15.83;38.34
54936;BME280;40838;50.676;7.838;2023-04-30T09:54:23;98831.75;;;15.27;38.27
54936;BME280;40838;50.676;7.838;2023-04-30T09:56:51;98838.00;;;16.92;33.94
54936;BME280;40838;50.676;7.838;2023-04-30T09:59:22;98827.47;;;17.58;36.69
54936;BME280;40838;50.676;7.838;2023-04-30T10:01:50;98830.63;;;15.47;37.29
54936;BME280;40838;50.676;7.838;2023-04-30T10:04:18;98824.41;;;16.02;34.67
54936;BME280;40838;50.676;7.838;2023-04-30T10:06:44;98826.19;;;13.97;36.79
54936;BME280;40838;50.676;7.838;2023-04-30T10:09:11;98827.75;;;14.78;40.49
54936;BME280;40838;50.676;7.838;2023-04-30T10:11:40;98813.41;;;15.48;38.16
54936;BME280;40838;50.676;7.838;2023-04-30T10:14:09;98816.41;;;15.14;38.83
54936;BME280;40838;50.676;7.838;2023-04-30T10:16:39;98814.19;;;14.32;38.81
54936;BME280;40838;50.676;7.838;2023-04-30T10:19:11;98816.19;;;16.94;35.08
54936;BME280;40838;50.676;7.838;2023-04-30T10:21:39;98813.91;;;15.64;36.84
54936;BME280;40838;50.676;7.838;2023-04-30T10:24:07;98804.25;;;15.49;40.10
54936;BME280;40838;50.676;7.838;2023-04-30T10:26:34;98802.53;;;16.90;33.24
54936;BME280;40838;50.676;7.838;2023-04-30T10:29:01;98808.59;;;15.32;39.20
54936;BME280;40838;50.676;7.838;2023-04-30T10:31:29;98801.38;;;17.36;38.72
54936;BME280;40838;50.676;7.838;2023-04-30T10:34:01;98803.81;;;16.93;36.13
54936;BME280;40838;50.676;7.838;2023-04-30T10:36:32;98782.63;;;14.48;40.61
54936;BME280;40838;50.676;7.838;2023-04-30T10:39:02;98795.16;;;16.51;39.48
54936;BME280;40838;50.676;7.838;2023-04-30T10:41:30;98795.59;;;18.09;36.07
54936;BME280;40838;50.676;7.838;2023-04-30T10:43:57;98792.44;;;15.37;40.94
54936;BME280;40838;50.676;7.838;2023-04-30T10:46:24;98789.41;;;14.78;40.22
54936;BME280;40838;50.676;7.838;2023-04-30T10:48:52;98798.16;;;13.89;40.90
54936;BME280;40838;50.676;7.838;2023-04-30T10:51:21;98786.25;;;15.78;39.38
54936;BME280;40838;50.676;7.838;2023-04-30T10:53:48;98788.47;;;15.01;41.68
54936;BME280;40838;50.676;7.838;2023-04-30T10:56:27;98781.97;;;17.57;42.54
54936;BME280;40838;50.676;7.838;2023-04-30T10:58:57;98781.53;;;15.14;42.06
54936;BME280;40838;50.676;7.838;2023-04-30T11:01:24;98772.84;;;15.64;42.47
54936;BME280;40838;50.676;7.838;2023-04-30T11:04:03;98780.00;;;13.62;48.55
54936;BME280;40838;50.676;7.838;2023-04-30T11:09:13;98769.97;;;14.53;48.24
54936;BME280;40838;50.676;7.838;2023-04-30T11:11:42;98753.22;;;14.05;43.75
54936;BME280;40838;50.676;7.838;2023-04-30T11:14:10;98756.75;;;13.09;48.84
54936;BME280;40838;50.676;7.838;2023-04-30T11:16:36;98760.25;;;13.82;47.03
54936;BME280;40838;50.676;7.838;2023-04-30T11:19:06;98753.72;;;14.64;43.35
54936;BME280;40838;50.676;7.838;2023-04-30T11:21:38;98747.72;;;14.15;46.57
54936;BME280;40838;50.676;7.838;2023-04-30T11:24:05;98748.69;;;13.14;49.10
54936;BME280;40838;50.676;7.838;2023-04-30T11:29:14;98758.78;;;13.70;42.47
54936;BME280;40838;50.676;7.838;2023-04-30T11:31:41;98752.88;;;13.92;42.40
54936;BME280;40838;50.676;7.838;2023-04-30T11:34:08;98739.75;;;12.66;45.72
54936;BME280;40838;50.676;7.838;2023-04-30T11:36:35;98749.75;;;14.42;46.36
54936;BME280;40838;50.676;7.838;2023-04-30T11:39:02;98748.47;;;15.19;40.57
54936;BME280;40838;50.676;7.838;2023-04-30T11:41:30;98743.19;;;14.67;41.92
54936;BME280;40838;50.676;7.838;2023-04-30T11:43:57;98743.69;;;15.29;42.32
54936;BME280;40838;50.676;7.838;2023-04-30T11:46:25;98740.41;;;14.21;46.93
54936;BME280;40838;50.676;7.838;2023-04-30T11:48:52;98726.47;;;15.86;41.36
54936;BME280;40838;50.676;7.838;2023-04-30T11:51:19;98732.53;;;16.50;38.70
54936;BME280;40838;50.676;7.838;2023-04-30T11:53:47;98735.94;;;15.00;39.13
54936;BME280;40838;50.676;7.838;2023-04-30T11:56:16;98723.28;;;14.87;42.77
54936;BME280;40838;50.676;7.838;2023-04-30T11:58:44;98729.59;;;16.02;47.96
54936;BME280;40838;50.676;7.838;2023-04-30T12:01:11;98722.31;;;15.24;40.05
54936;BME280;40838;50.676;7.838;2023-04-30T12:03:43;98733.63;;;13.90;45.62
54936;BME280;40838;50.676;7.838;2023-04-30T12:06:10;98727.47;;;13.90;42.23
54936;BME280;40838;50.676;7.838;2023-04-30T12:08:37;98718.50;;;14.84;41.14
54936;BME280;40838;50.676;7.838;2023-04-30T12:11:04;98710.72;;;15.43;40.17
54936;BME280;40838;50.676;7.838;2023-04-30T12:13:32;98722.00;;;14.98;40.87
54936;BME280;40838;50.676;7.838;2023-04-30T12:15:58;98731.25;;;13.65;44.49
54936;BME280;40838;50.676;7.838;2023-04-30T12:18:25;98736.88;;;13.63;50.05
54936;BME280;40838;50.676;7.838;2023-04-30T12:20:53;98727.09;;;14.15;46.14
54936;BME280;40838;50.676;7.838;2023-04-30T12:23:20;98717.28;;;14.44;50.74
54936;BME280;40838;50.676;7.838;2023-04-30T12:25:47;98716.50;;;14.43;44.86
54936;BME280;40838;50.676;7.838;2023-04-30T12:28:14;98718.84;;;15.10;44.10
54936;BME280;40838;50.676;7.838;2023-04-30T12:30:40;98722.59;;;13.73;54.82
54936;BME280;40838;50.676;7.838;2023-04-30T12:33:08;98727.88;;;14.35;41.65
54936;BME280;40838;50.676;7.838;2023-04-30T12:35:36;98705.72;;;15.22;46.36
54936;BME280;40838;50.676;7.838;2023-04-30T12:38:04;98712.09;;;15.90;45.99
54936;BME280;40838;50.676;7.838;2023-04-30T12:40:31;98712.97;;;15.63;43.51
54936;BME280;40838;50.676;7.838;2023-04-30T12:42:58;98718.19;;;14.20;42.87
54936;BME280;40838;50.676;7.838;2023-04-30T12:45:41;98720.97;;;14.48;49.85
54936;BME280;40838;50.676;7.838;2023-04-30T12:48:08;98714.72;;;14.71;46.87
54936;BME280;40838;50.676;7.838;2023-04-30T12:50:35;98716.22;;;13.45;48.39
54936;BME280;40838;50.676;7.838;2023-04-30T12:53:04;98705.00;;;14.24;42.93
54936;BME280;40838;50.676;7.838;2023-04-30T12:55:31;98702.81;;;14.77;44.75
54936;BME280;40838;50.676;7.838;2023-04-30T12:58:03;98694.53;;;14.41;44.72
54936;BME280;40838;50.676;7.838;2023-04-30T13:00:41;98703.38;;;13.90;47.45
54936;BME280;40838;50.676;7.838;2023-04-30T13:03:10;98695.41;;;13.85;44.28
54936;BME280;40838;50.676;7.838;2023-04-30T13:05:37;98689.81;;;14.19;43.77
54936;BME280;40838;50.676;7.838;2023-04-30T13:08:08;98688.88;;;13.91;45.61
54936;BME280;40838;50.676;7.838;2023-04-30T13:10:35;98693.13;;;15.50;44.19
54936;BME280;40838;50.676;7.838;2023-04-30T13:13:01;98682.38;;;15.09;41.16